sensor_id;sensor_type;location;lat;lon;timestamp;temperature;humidity
23160;DHT22;11748;50.844;4.396;2023-07-31T00:00:23;18.00;99.90
23160;DHT22;11748;50.844;4.396;2023-07-31T00:02:52;17.90;99.90
23160;DHT22;11748;50.844;4.396;2023-07-31T00:05:21;18.00;99.90
23160;DHT22;11748;50.844;4.396;2023-07-31T00:07:51;18.20;99.90
23160;DHT22;11748;50.844;4.396;2023-07-31T00:10:23;18.30;99.90
23160;DHT22;11748;50.844;4.396;2023-07-31T00:12:52;18.20;99.90
23160;DHT22;11748;50.844;4.396;2023-07-31T00:15:20;18.00;99.90
23160;DHT22;11748;50.844;4.396;2023-07-31T00:17:48;18.00;99.90
23160;DHT22;11748;50.844;4.396;2023-07-31T00:20:22;17.90;99.90
23160;DHT22;11748;50.844;4.396;2023-07-31T00:22:57;17.90;99.90
23160;DHT22;11748;50.844;4.396;2023-07-31T00:25:23;18.00;99.90
23160;DHT22;11748;50.844;4.396;2023-07-31T00:27:52;18.00;99.90
23160;DHT22;11748;50.844;4.396;2023-07-31T00:30:33;18.00;99.90
23160;DHT22;11748;50.844;4.396;2023-07-31T00:33:05;17.90;99.90
23160;DHT22;11748;50.844;4.396;2023-07-31T00:35:31;17.80;99.90
23160;DHT22;11748;50.844;4.396;2023-07-31T00:38:03;17.80;99.90
23160;DHT22;11748;50.844;4.396;2023-07-31T00:40:35;17.90;99.90
23160;DHT22;11748;50.844;4.396;2023-07-31T00:43:04;17.90;99.90
23160;DHT22;11748;50.844;4.396;2023-07-31T00:45:32;18.00;99.90
23160;DHT22;11748;50.844;4.396;2023-07-31T00:48:01;18.10;99.90
23160;DHT22;11748;50.844;4.396;2023-07-31T00:50:49;18.30;99.90
23160;DHT22;11748;50.844;4.396;2023-07-31T00:53:24;18.30;99.90
23160;DHT22;11748;50.844;4.396;2023-07-31T00:55:53;18.30;99.90
23160;DHT22;11748;50.844;4.396;2023-07-31T00:58:20;18.40;99.90
23160;DHT22;11748;50.844;4.396;2023-07-31T01:00:51;18.20;99.90
23160;DHT22;11748;50.844;4.396;2023-07-31T01:03:39;18.10;99.90
23160;DHT22;11748;50.844;4.396;2023-07-31T01:09:16;18.00;99.90
23160;DHT22;11748;50.844;4.396;2023-07-31T01:11:53;17.90;99.90
23160;DHT22;11748;50.844;4.396;2023-07-31T01:14:22;17.80;99.90
23160;DHT22;11748;50.844;4.396;2023-07-31T01:16:54;17.90;99.90
23160;DHT22;11748;50.844;4.396;2023-07-31T01:19:38;17.90;99.90
23160;DHT22;11748;50.844;4.396;2023-07-31T01:27:59;18.00;99.90
23160;DHT22;11748;50.844;4.396;2023-07-31T01:30:32;18.00;99.90
23160;DHT22;11748;50.844;4.396;2023-07-31T01:33:03;18.00;99.90
23160;DHT22;11748;50.844;4.396;2023-07-31T01:35:37;17.90;99.90
23160;DHT22;11748;50.844;4.396;2023-07-31T01:38:07;18.00;99.90
23160;DHT22;11748;50.844;4.396;2023-07-31T01:40:35;18.00;99.90
23160;DHT22;11748;50.844;4.396;2023-07-31T01:43:02;17.90;99.90
23160;DHT22;11748;50.844;4.396;2023-07-31T01:45:28;17.90;99.90
23160;DHT22;11748;50.844;4.396;2023-07-31T01:47:56;18.00;99.90
23160;DHT22;11748;50.844;4.396;2023-07-31T01:50:22;18.00;99.90
23160;DHT22;11748;50.844;4.396;2023-07-31T01:52:48;18.10;99.90
23160;DHT22;11748;50.844;4.396;2023-07-31T01:55:15;18.10;99.90
23160;DHT22;11748;50.844;4.396;2023-07-31T01:57:44;18.20;99.90
23160;DHT22;11748;50.844;4.396;2023-07-31T02:00:16;18.10;99.90
23160;DHT22;11748;50.844;4.396;2023-07-31T02:02:45;18.20;99.90
23160;DHT22;11748;50.844;4.396;2023-07-31T02:05:22;18.20;99.90
23160;DHT22;11748;50.844;4.396;2023-07-31T02:07:51;18.10;99.90
23160;DHT22;11748;50.844;4.396;2023-07-31T02:10:19;18.20;99.90
23160;DHT22;11748;50.844;4.396;2023-07-31T02:12:46;18.20;99.90
23160;DHT22;11748;50.844;4.396;2023-07-31T02:15:31;18.30;99.90
23160;DHT22;11748;50.844;4.396;2023-07-31T02:18:04;18.30;99.90
23160;DHT22;11748;50.844;4.396;2023-07-31T02:20:39;18.30;99.90
23160;DHT22;11748;50.844;4.396;2023-07-31T02:23:20;18.40;99.90
23160;DHT22;11748;50.844;4.396;2023-07-31T02:25:46;18.40;99.90
23160;DHT22;11748;50.844;4.396;2023-07-31T02:28:13;18.50;99.90
23160;DHT22;11748;50.844;4.396;2023-07-31T02:30:45;18.60;99.90
23160;DHT22;11748;50.844;4.396;2023-07-31T02:33:15;18.60;99.90
23160;DHT22;11748;50.844;4.396;2023-07-31T02:39:07;18.30;99.90
23160;DHT22;11748;50.844;4.396;2023-07-31T02:41:33;18.30;99.90
23160;DHT22;11748;50.844;4.396;2023-07-31T02:43:58;18.20;99.90
23160;DHT22;11748;50.844;4.396;2023-07-31T02:46:25;18.40;99.90
23160;DHT22;11748;50.844;4.396;2023-07-31T02:48:51;18.60;99.90
23160;DHT22;11748;50.844;4.396;2023-07-31T02:51:19;18.50;99.90
23160;DHT22;11748;50.844;4.396;2023-07-31T02:54:05;18.60;99.90
23160;DHT22;11748;50.844;4.396;2023-07-31T02:56:30;18.70;99.90
23160;DHT22;11748;50.844;4.396;2023-07-31T03:02:18;18.70;99.90
23160;DHT22;11748;50.844;4.396;2023-07-31T03:08:03;18.70;99.90
23160;DHT22;11748;50.844;4.396;2023-07-31T03:10:32;18.70;99.90
23160;DHT22;11748;50.844;4.396;2023-07-31T03:13:01;18.70;99.90
23160;DHT22;11748;50.844;4.396;2023-07-31T03:15:38;18.80;99.90
23160;DHT22;11748;50.844;4.396;2023-07-31T03:18:22;18.70;99.90
23160;DHT22;11748;50.844;4.396;2023-07-31T03:20:51;18.80;99.90
23160;DHT22;11748;50.844;4.396;2023-07-31T03:23:22;18.70;99.90
23160;DHT22;11748;50.844;4.396;2023-07-31T03:28:58;18.60;99.90
23160;DHT22;11748;50.844;4.396;2023-07-31T03:31:28;18.60;99.90
23160;DHT22;11748;50.844;4.396;2023-07-31T03:33:54;18.60;99.90
23160;DHT22;11748;50.844;4.396;2023-07-31T03:36:22;18.60;99.90
23160;DHT22;11748;50.844;4.396;2023-07-31T03:38:48;18.40;99.90
23160;DHT22;11748;50.844;4.396;2023-07-31T03:41:17;18.30;99.90
23160;DHT22;11748;50.844;4.396;2023-07-31T03:43:50;18.30;99.90
23160;DHT22;11748;50.844;4.396;2023-07-31T03:46:23;18.40;99.90
23160;DHT22;11748;50.844;4.396;2023-07-31T03:48:51;18.50;99.90
23160;DHT22;11748;50.844;4.396;2023-07-31T03:51:19;18.50;99.90
23160;DHT22;11748;50.844;4.396;2023-07-31T03:53:45;18.50;99.90
23160;DHT22;11748;50.844;4.396;2023-07-31T03:56:14;18.40;99.90
23160;DHT22;11748;50.844;4.396;2023-07-31T03:58:43;18.40;99.90
23160;DHT22;11748;50.844;4.396;2023-07-31T04:01:10;18.40;99.90
23160;DHT22;11748;50.844;4.396;2023-07-31T04:03:39;18.30;99.90
23160;DHT22;11748;50.844;4.396;2023-07-31T04:06:07;18.30;99.90
23160;DHT22;11748;50.844;4.396;2023-07-31T04:08:44;18.20;99.90
23160;DHT22;11748;50.844;4.396;2023-07-31T04:11:16;18.20;99.90
23160;DHT22;11748;50.844;4.396;2023-07-31T04:13:48;18.20;99.90
23160;DHT22;11748;50.844;4.396;2023-07-31T04:16:14;18.00;99.90
23160;DHT22;11748;50.844;4.396;2023-07-31T04:18:40;17.70;99.90
23160;DHT22;11748;50.844;4.396;2023-07-31T04:21:11;17.80;99.90
23160;DHT22;11748;50.844;4.396;2023-07-31T04:23:38;17.80;99.90
23160;DHT22;11748;50.844;4.396;2023-07-31T04:26:10;17.80;99.90
23160;DHT22;11748;50.844;4.396;2023-07-31T04:28:36;17.80;99.90
23160;DHT22;11748;50.844;4.396;2023-07-31T04:31:06;17.90;99.90
23160;DHT22;11748;50.844;4.396;2023-07-31T04:33:31;17.80;99.90
23160;DHT22;11748;50.844;4.396;2023-07-31T04:35:59;17.80;99.90
23160;DHT22;11748;50.844;4.396;2023-07-31T04:38:24;17.80;99.90
23160;DHT22;11748;50.844;4.396;2023-07-31T04:40:53;18.00;99.90
23160;DHT22;11748;50.844;4.396;2023-07-31T04:43:22;18.10;99.90
23160;DHT22;11748;50.844;4.396;2023-07-31T04:49:33;18.00;99.90
23160;DHT22;11748;50.844;4.396;2023-07-31T04:52:13;18.10;99.90
23160;DHT22;11748;50.844;4.396;2023-07-31T04:54:39;18.10;99.90
23160;DHT22;11748;50.844;4.396;2023-07-31T04:57:10;18.10;99.90
23160;DHT22;11748;50.844;4.396;2023-07-31T04:59:49;18.20;99.90
23160;DHT22;11748;50.844;4.396;2023-07-31T05:02:15;18.30;99.90
23160;DHT22;11748;50.844;4.396;2023-07-31T05:04:44;18.30;99.90
23160;DHT22;11748;50.844;4.396;2023-07-31T05:07:13;18.40;99.90
23160;DHT22;11748;50.844;4.396;2023-07-31T05:09:41;18.20;99.90
23160;DHT22;11748;50.844;4.396;2023-07-31T05:12:12;18.20;99.90
23160;DHT22;11748;50.844;4.396;2023-07-31T05:14:41;18.20;99.90
23160;DHT22;11748;50.844;4.396;2023-07-31T05:17:09;18.20;99.90
23160;DHT22;11748;50.844;4.396;2023-07-31T05:19:41;18.00;99.90
23160;DHT22;11748;50.844;4.396;2023-07-31T05:22:10;18.10;99.90
23160;DHT22;11748;50.844;4.396;2023-07-31T05:24:36;18.10;99.90
23160;DHT22;11748;50.844;4.396;2023-07-31T05:27:03;18.00;99.90
23160;DHT22;11748;50.844;4.396;2023-07-31T05:29:32;17.80;99.90
23160;DHT22;11748;50.844;4.396;2023-07-31T05:32:01;17.80;99.90
23160;DHT22;11748;50.844;4.396;2023-07-31T05:34:30;17.90;99.90
23160;DHT22;11748;50.844;4.396;2023-07-31T05:36:59;17.90;99.90
23160;DHT22;11748;50.844;4.396;2023-07-31T05:39:26;17.80;99.90
23160;DHT22;11748;50.844;4.396;2023-07-31T05:41:55;17.80;99.90
23160;DHT22;11748;50.844;4.396;2023-07-31T05:44:23;17.90;99.90
23160;DHT22;11748;50.844;4.396;2023-07-31T05:46:52;17.70;99.90
23160;DHT22;11748;50.844;4.396;2023-07-31T05:49:24;17.80;99.90
23160;DHT22;11748;50.844;4.396;2023-07-31T05:51:56;17.90;99.90
23160;DHT22;11748;50.844;4.396;2023-07-31T05:54:23;18.10;99.90
23160;DHT22;11748;50.844;4.396;2023-07-31T05:56:52;18.20;99.90
23160;DHT22;11748;50.844;4.396;2023-07-31T05:59:20;18.00;99.90
23160;DHT22;11748;50.844;4.396;2023-07-31T06:01:49;18.10;99.90
23160;DHT22;11748;50.844;4.396;2023-07-31T06:04:18;18.10;99.90
23160;DHT22;11748;50.844;4.396;2023-07-31T06:06:46;18.00;99.90
23160;DHT22;11748;50.844;4.396;2023-07-31T06:09:15;18.00;99.90
23160;DHT22;11748;50.844;4.396;2023-07-31T06:11:44;18.00;99.90
23160;DHT22;11748;50.844;4.396;2023-07-31T06:14:28;18.30;99.90
23160;DHT22;11748;50.844;4.396;2023-07-31T06:17:00;18.00;99.90
23160;DHT22;11748;50.844;4.396;2023-07-31T06:19:43;17.80;99.90
23160;DHT22;11748;50.844;4.396;2023-07-31T06:22:09;17.60;99.90
23160;DHT22;11748;50.844;4.396;2023-07-31T06:24:36;17.60;99.90
23160;DHT22;11748;50.844;4.396;2023-07-31T06:27:03;17.90;99.90
23160;DHT22;11748;50.844;4.396;2023-07-31T06:29:30;17.80;99.90
23160;DHT22;11748;50.844;4.396;2023-07-31T06:31:58;17.90;99.90
23160;DHT22;11748;50.844;4.396;2023-07-31T06:34:24;18.00;99.90
23160;DHT22;11748;50.844;4.396;2023-07-31T06:36:53;18.10;99.90
23160;DHT22;11748;50.844;4.396;2023-07-31T06:39:19;18.30;99.90
23160;DHT22;11748;50.844;4.396;2023-07-31T06:41:46;18.50;99.90
23160;DHT22;11748;50.844;4.396;2023-07-31T06:44:13;18.20;99.90
23160;DHT22;11748;50.844;4.396;2023-07-31T06:46:56;18.00;99.90
23160;DHT22;11748;50.844;4.396;2023-07-31T06:49:23;18.20;99.90
23160;DHT22;11748;50.844;4.396;2023-07-31T06:51:48;18.40;99.90
23160;DHT22;11748;50.844;4.396;2023-07-31T06:54:14;18.60;99.90
23160;DHT22;11748;50.844;4.396;2023-07-31T06:56:44;18.60;99.90
23160;DHT22;11748;50.844;4.396;2023-07-31T06:59:12;18.60;99.90
23160;DHT22;11748;50.844;4.396;2023-07-31T07:01:40;18.90;99.90
23160;DHT22;11748;50.844;4.396;2023-07-31T07:04:22;18.90;99.90
23160;DHT22;11748;50.844;4.396;2023-07-31T07:06:51;19.00;99.90
23160;DHT22;11748;50.844;4.396;2023-07-31T07:09:17;19.20;99.90
23160;DHT22;11748;50.844;4.396;2023-07-31T07:11:44;19.30;99.90
23160;DHT22;11748;50.844;4.396;2023-07-31T07:14:10;19.10;99.90
23160;DHT22;11748;50.844;4.396;2023-07-31T07:16:37;19.20;99.90
23160;DHT22;11748;50.844;4.396;2023-07-31T07:19:04;19.40;99.90
23160;DHT22;11748;50.844;4.396;2023-07-31T07:21:33;19.70;99.90
23160;DHT22;11748;50.844;4.396;2023-07-31T07:24:01;19.90;99.90
23160;DHT22;11748;50.844;4.396;2023-07-31T07:26:27;20.00;99.90
23160;DHT22;11748;50.844;4.396;2023-07-31T07:28:54;19.80;99.90
23160;DHT22;11748;50.844;4.396;2023-07-31T07:31:23;19.50;99.90
23160;DHT22;11748;50.844;4.396;2023-07-31T07:33:49;19.50;99.90
23160;DHT22;11748;50.844;4.396;2023-07-31T07:36:18;19.40;99.90
23160;DHT22;11748;50.844;4.396;2023-07-31T07:38:47;19.40;99.90
23160;DHT22;11748;50.844;4.396;2023-07-31T07:41:14;19.20;99.90
23160;DHT22;11748;50.844;4.396;2023-07-31T07:43:42;19.20;99.90
23160;DHT22;11748;50.844;4.396;2023-07-31T07:46:09;19.30;99.90
23160;DHT22;11748;50.844;4.396;2023-07-31T07:48:35;19.70;99.90
23160;DHT22;11748;50.844;4.396;2023-07-31T07:51:04;19.50;99.90
23160;DHT22;11748;50.844;4.396;2023-07-31T07:53:33;19.10;99.90
23160;DHT22;11748;50.844;4.396;2023-07-31T07:56:02;19.00;99.90
23160;DHT22;11748;50.844;4.396;2023-07-31T07:58:33;18.90;99.90
23160;DHT22;11748;50.844;4.396;2023-07-31T08:01:01;18.80;99.90
23160;DHT22;11748;50.844;4.396;2023-07-31T08:03:28;18.90;99.90
23160;DHT22;11748;50.844;4.396;2023-07-31T08:05:58;19.00;99.90
23160;DHT22;11748;50.844;4.396;2023-07-31T08:08:25;19.20;99.90
23160;DHT22;11748;50.844;4.396;2023-07-31T08:10:53;19.20;99.90
23160;DHT22;11748;50.844;4.396;2023-07-31T08:13:21;19.20;99.90
23160;DHT22;11748;50.844;4.396;2023-07-31T08:15:50;19.30;99.90
23160;DHT22;11748;50.844;4.396;2023-07-31T08:18:22;19.30;99.90
23160;DHT22;11748;50.844;4.396;2023-07-31T08:20:51;19.40;99.90
23160;DHT22;11748;50.844;4.396;2023-07-31T08:23:22;19.30;99.90
23160;DHT22;11748;50.844;4.396;2023-07-31T08:25:52;19.00;99.90
23160;DHT22;11748;50.844;4.396;2023-07-31T08:28:46;18.90;99.90
23160;DHT22;11748;50.844;4.396;2023-07-31T08:37:56;19.10;99.90
23160;DHT22;11748;50.844;4.396;2023-07-31T08:40:27;19.10;99.90
23160;DHT22;11748;50.844;4.396;2023-07-31T08:42:56;19.20;99.90
23160;DHT22;11748;50.844;4.396;2023-07-31T08:45:42;19.30;99.90
23160;DHT22;11748;50.844;4.396;2023-07-31T08:48:12;19.30;99.90
23160;DHT22;11748;50.844;4.396;2023-07-31T08:50:39;19.20;99.90
23160;DHT22;11748;50.844;4.396;2023-07-31T08:53:05;19.40;99.90
23160;DHT22;11748;50.844;4.396;2023-07-31T08:55:32;19.40;99.90
23160;DHT22;11748;50.844;4.396;2023-07-31T08:58:04;19.30;99.90
23160;DHT22;11748;50.844;4.396;2023-07-31T09:00:32;19.20;99.90
23160;DHT22;11748;50.844;4.396;2023-07-31T09:03:22;19.00;99.90
23160;DHT22;11748;50.844;4.396;2023-07-31T09:05:52;18.80;99.90
23160;DHT22;11748;50.844;4.396;2023-07-31T09:08:21;19.10;99.90
23160;DHT22;11748;50.844;4.396;2023-07-31T09:10:50;19.10;99.90
23160;DHT22;11748;50.844;4.396;2023-07-31T09:13:16;19.30;99.90
23160;DHT22;11748;50.844;4.396;2023-07-31T09:15:48;19.00;99.90
23160;DHT22;11748;50.844;4.396;2023-07-31T09:18:15;19.00;99.90
23160;DHT22;11748;50.844;4.396;2023-07-31T09:21:14;19.20;99.90
23160;DHT22;11748;50.844;4.396;2023-07-31T09:23:46;19.60;99.90
23160;DHT22;11748;50.844;4.396;2023-07-31T09:26:37;19.70;99.90
23160;DHT22;11748;50.844;4.396;2023-07-31T09:29:05;20.00;99.90
23160;DHT22;11748;50.844;4.396;2023-07-31T09:31:42;20.10;99.90
23160;DHT22;11748;50.844;4.396;2023-07-31T09:34:08;20.30;99.90
23160;DHT22;11748;50.844;4.396;2023-07-31T09:36:47;20.20;99.90
23160;DHT22;11748;50.844;4.396;2023-07-31T09:39:14;20.20;99.90
23160;DHT22;11748;50.844;4.396;2023-07-31T09:42:01;20.00;99.90
23160;DHT22;11748;50.844;4.396;2023-07-31T09:44:41;19.90;99.90
23160;DHT22;11748;50.844;4.396;2023-07-31T09:47:08;19.80;99.90
23160;DHT22;11748;50.844;4.396;2023-07-31T09:53:09;19.70;99.90
23160;DHT22;11748;50.844;4.396;2023-07-31T09:55:39;19.70;99.90
23160;DHT22;11748;50.844;4.396;2023-07-31T09:58:10;19.70;99.90
23160;DHT22;11748;50.844;4.396;2023-07-31T10:00:42;19.50;99.90
23160;DHT22;11748;50.844;4.396;2023-07-31T10:03:11;19.60;99.90
23160;DHT22;11748;50.844;4.396;2023-07-31T10:05:49;19.70;99.90
23160;DHT22;11748;50.844;4.396;2023-07-31T10:08:16;19.50;99.90
23160;DHT22;11748;50.844;4.396;2023-07-31T10:10:58;19.50;99.90
23160;DHT22;11748;50.844;4.396;2023-07-31T10:13:27;19.80;99.90
23160;DHT22;11748;50.844;4.396;2023-07-31T10:15:59;19.80;99.90
23160;DHT22;11748;50.844;4.396;2023-07-31T10:18:28;20.00;99.90
23160;DHT22;11748;50.844;4.396;2023-07-31T10:20:55;20.00;99.90
23160;DHT22;11748;50.844;4.396;2023-07-31T10:23:24;20.30;99.90
23160;DHT22;11748;50.844;4.396;2023-07-31T10:25:53;20.40;99.90
23160;DHT22;11748;50.844;4.396;2023-07-31T10:28:20;20.50;99.90
23160;DHT22;11748;50.844;4.396;2023-07-31T10:30:49;20.50;99.90
23160;DHT22;11748;50.844;4.396;2023-07-31T10:33:16;20.80;99.90
23160;DHT22;11748;50.844;4.396;2023-07-31T10:35:47;21.10;99.90
23160;DHT22;11748;50.844;4.396;2023-07-31T10:38:17;21.20;99.90
23160;DHT22;11748;50.844;4.396;2023-07-31T10:40:49;21.30;99.90
23160;DHT22;11748;50.844;4.396;2023-07-31T10:43:26;21.30;99.90
23160;DHT22;11748;50.844;4.396;2023-07-31T10:45:55;21.00;99.90
23160;DHT22;11748;50.844;4.396;2023-07-31T10:48:24;21.00;99.90
23160;DHT22;11748;50.844;4.396;2023-07-31T10:50:58;20.40;99.90
23160;DHT22;11748;50.844;4.396;2023-07-31T10:53:32;20.60;99.90
23160;DHT22;11748;50.844;4.396;2023-07-31T10:56:13;20.80;99.90
23160;DHT22;11748;50.844;4.396;2023-07-31T10:59:03;20.80;99.90
23160;DHT22;11748;50.844;4.396;2023-07-31T11:04:14;21.20;99.90
23160;DHT22;11748;50.844;4.396;2023-07-31T11:06:55;21.20;99.90
23160;DHT22;11748;50.844;4.396;2023-07-31T11:09:22;21.20;99.90
23160;DHT22;11748;50.844;4.396;2023-07-31T11:11:49;21.30;99.90
23160;DHT22;11748;50.844;4.396;2023-07-31T11:14:18;21.20;99.90
23160;DHT22;11748;50.844;4.396;2023-07-31T11:16:44;20.90;99.90
23160;DHT22;11748;50.844;4.396;2023-07-31T11:19:12;20.80;99.90
23160;DHT22;11748;50.844;4.396;2023-07-31T11:21:41;21.10;99.90
23160;DHT22;11748;50.844;4.396;2023-07-31T11:24:12;21.40;99.90
23160;DHT22;11748;50.844;4.396;2023-07-31T11:26:54;21.60;99.90
23160;DHT22;11748;50.844;4.396;2023-07-31T11:29:50;21.40;99.90
23160;DHT22;11748;50.844;4.396;2023-07-31T11:32:17;21.50;99.90
23160;DHT22;11748;50.844;4.396;2023-07-31T11:34:56;21.30;99.90
23160;DHT22;11748;50.844;4.396;2023-07-31T11:37:23;21.40;99.90
23160;DHT22;11748;50.844;4.396;2023-07-31T11:40:04;21.40;99.90
23160;DHT22;11748;50.844;4.396;2023-07-31T11:42:30;21.50;99.90
23160;DHT22;11748;50.844;4.396;2023-07-31T11:45:04;21.70;99.90
23160;DHT22;11748;50.844;4.396;2023-07-31T11:47:39;21.80;99.90
23160;DHT22;11748;50.844;4.396;2023-07-31T11:50:11;21.80;99.90
23160;DHT22;11748;50.844;4.396;2023-07-31T11:52:44;21.70;99.90
23160;DHT22;11748;50.844;4.396;2023-07-31T11:55:10;21.70;99.90
23160;DHT22;11748;50.844;4.396;2023-07-31T11:57:39;21.60;99.90
23160;DHT22;11748;50.844;4.396;2023-07-31T12:00:09;21.70;99.90
23160;DHT22;11748;50.844;4.396;2023-07-31T12:02:46;22.00;99.90
23160;DHT22;11748;50.844;4.396;2023-07-31T12:05:12;21.60;99.90
23160;DHT22;11748;50.844;4.396;2023-07-31T12:07:51;21.60;99.90
23160;DHT22;11748;50.844;4.396;2023-07-31T12:10:29;21.90;99.90
23160;DHT22;11748;50.844;4.396;2023-07-31T12:13:05;22.00;99.90
23160;DHT22;11748;50.844;4.396;2023-07-31T12:15:39;21.90;99.90
23160;DHT22;11748;50.844;4.396;2023-07-31T12:18:12;22.20;99.90
23160;DHT22;11748;50.844;4.396;2023-07-31T12:20:46;22.20;99.90
23160;DHT22;11748;50.844;4.396;2023-07-31T12:23:31;22.10;99.90
23160;DHT22;11748;50.844;4.396;2023-07-31T12:28:44;22.00;99.90
23160;DHT22;11748;50.844;4.396;2023-07-31T12:31:11;22.10;99.90
23160;DHT22;11748;50.844;4.396;2023-07-31T12:33:39;22.00;99.90
23160;DHT22;11748;50.844;4.396;2023-07-31T12:36:13;22.00;99.90
23160;DHT22;11748;50.844;4.396;2023-07-31T12:38:39;21.90;99.90
23160;DHT22;11748;50.844;4.396;2023-07-31T12:41:08;22.10;99.90
23160;DHT22;11748;50.844;4.396;2023-07-31T12:43:36;22.20;99.90
23160;DHT22;11748;50.844;4.396;2023-07-31T12:46:06;22.20;99.90
23160;DHT22;11748;50.844;4.396;2023-07-31T12:48:38;22.10;99.90
23160;DHT22;11748;50.844;4.396;2023-07-31T12:51:06;22.50;99.90
23160;DHT22;11748;50.844;4.396;2023-07-31T12:53:38;22.60;99.90
23160;DHT22;11748;50.844;4.396;2023-07-31T12:56:07;22.70;99.90
23160;DHT22;11748;50.844;4.396;2023-07-31T12:58:33;22.30;99.90
23160;DHT22;11748;50.844;4.396;2023-07-31T13:01:02;22.20;99.90
23160;DHT22;11748;50.844;4.396;2023-07-31T13:03:48;22.30;99.90
23160;DHT22;11748;50.844;4.396;2023-07-31T13:06:17;22.00;99.90
23160;DHT22;11748;50.844;4.396;2023-07-31T13:09:08;21.90;99.90
23160;DHT22;11748;50.844;4.396;2023-07-31T13:11:38;21.90;99.90
23160;DHT22;11748;50.844;4.396;2023-07-31T13:14:14;21.80;99.90
23160;DHT22;11748;50.844;4.396;2023-07-31T13:16:43;21.70;99.90
23160;DHT22;11748;50.844;4.396;2023-07-31T13:19:12;21.20;99.90
23160;DHT22;11748;50.844;4.396;2023-07-31T13:21:44;20.80;99.90
23160;DHT22;11748;50.844;4.396;2023-07-31T13:24:10;20.80;99.90
23160;DHT22;11748;50.844;4.396;2023-07-31T13:26:37;20.90;99.90
23160;DHT22;11748;50.844;4.396;2023-07-31T13:29:15;21.00;99.90
23160;DHT22;11748;50.844;4.396;2023-07-31T13:31:42;20.90;99.90
23160;DHT22;11748;50.844;4.396;2023-07-31T13:34:08;20.60;99.90
23160;DHT22;11748;50.844;4.396;2023-07-31T13:36:37;20.80;99.90
23160;DHT22;11748;50.844;4.396;2023-07-31T13:39:05;20.90;99.90
23160;DHT22;11748;50.844;4.396;2023-07-31T13:41:31;21.00;99.90
23160;DHT22;11748;50.844;4.396;2023-07-31T13:43:59;20.90;99.90
23160;DHT22;11748;50.844;4.396;2023-07-31T13:46:28;20.70;99.90
23160;DHT22;11748;50.844;4.396;2023-07-31T13:48:56;20.60;99.90
23160;DHT22;11748;50.844;4.396;2023-07-31T13:51:25;20.30;99.90
23160;DHT22;11748;50.844;4.396;2023-07-31T13:53:54;20.00;99.90
23160;DHT22;11748;50.844;4.396;2023-07-31T13:56:22;20.20;99.90
23160;DHT22;11748;50.844;4.396;2023-07-31T13:58:48;20.20;99.90
23160;DHT22;11748;50.844;4.396;2023-07-31T14:01:15;19.90;99.90
23160;DHT22;11748;50.844;4.396;2023-07-31T14:03:41;19.90;99.90
23160;DHT22;11748;50.844;4.396;2023-07-31T14:06:10;19.90;99.90
23160;DHT22;11748;50.844;4.396;2023-07-31T14:08:37;20.10;99.90
23160;DHT22;11748;50.844;4.396;2023-07-31T14:11:06;20.10;99.90
23160;DHT22;11748;50.844;4.396;2023-07-31T14:13:34;20.10;99.90
23160;DHT22;11748;50.844;4.396;2023-07-31T14:16:02;20.00;99.90
23160;DHT22;11748;50.844;4.396;2023-07-31T14:18:28;19.70;99.90
23160;DHT22;11748;50.844;4.396;2023-07-31T14:20:57;19.80;99.90
23160;DHT22;11748;50.844;4.396;2023-07-31T14:23:22;19.80;99.90
23160;DHT22;11748;50.844;4.396;2023-07-31T14:25:49;19.80;99.90
23160;DHT22;11748;50.844;4.396;2023-07-31T14:28:15;20.00;99.90
23160;DHT22;11748;50.844;4.396;2023-07-31T14:30:44;20.00;99.90
23160;DHT22;11748;50.844;4.396;2023-07-31T14:33:10;20.20;99.90
23160;DHT22;11748;50.844;4.396;2023-07-31T14:35:37;20.20;99.90
23160;DHT22;11748;50.844;4.396;2023-07-31T14:38:02;20.20;99.90
23160;DHT22;11748;50.844;4.396;2023-07-31T14:40:28;20.10;99.90
23160;DHT22;11748;50.844;4.396;2023-07-31T14:42:55;20.10;99.90
23160;DHT22;11748;50.844;4.396;2023-07-31T14:45:21;20.20;99.90
23160;DHT22;11748;50.844;4.396;2023-07-31T14:47:47;20.20;99.90
23160;DHT22;11748;50.844;4.396;2023-07-31T14:50:15;20.10;99.90
23160;DHT22;11748;50.844;4.396;2023-07-31T14:52:47;20.20;99.90
23160;DHT22;11748;50.844;4.396;2023-07-31T14:55:16;20.10;99.90
23160;DHT22;11748;50.844;4.396;2023-07-31T14:57:45;20.10;99.90
23160;DHT22;11748;50.844;4.396;2023-07-31T15:00:14;20.10;99.90
23160;DHT22;11748;50.844;4.396;2023-07-31T15:02:42;20.10;99.90
23160;DHT22;11748;50.844;4.396;2023-07-31T15:05:10;20.20;99.90
23160;DHT22;11748;50.844;4.396;2023-07-31T15:07:45;20.30;99.90
23160;DHT22;11748;50.844;4.396;2023-07-31T15:10:16;20.00;99.90
23160;DHT22;11748;50.844;4.396;2023-07-31T15:12:44;20.10;99.90
23160;DHT22;11748;50.844;4.396;2023-07-31T15:15:23;20.10;99.90
23160;DHT22;11748;50.844;4.396;2023-07-31T15:17:49;20.00;99.90
23160;DHT22;11748;50.844;4.396;2023-07-31T15:20:18;19.90;99.90
23160;DHT22;11748;50.844;4.396;2023-07-31T15:22:45;20.00;99.90
23160;DHT22;11748;50.844;4.396;2023-07-31T15:25:14;19.90;99.90
23160;DHT22;11748;50.844;4.396;2023-07-31T15:27:42;20.00;99.90
23160;DHT22;11748;50.844;4.396;2023-07-31T15:30:24;20.10;99.90
23160;DHT22;11748;50.844;4.396;2023-07-31T15:33:00;19.80;99.90
23160;DHT22;11748;50.844;4.396;2023-07-31T15:35:29;20.00;99.90
23160;DHT22;11748;50.844;4.396;2023-07-31T15:37:55;20.00;99.90
23160;DHT22;11748;50.844;4.396;2023-07-31T15:40:24;20.20;99.90
23160;DHT22;11748;50.844;4.396;2023-07-31T15:42:51;20.10;99.90
23160;DHT22;11748;50.844;4.396;2023-07-31T15:45:26;20.10;99.90
23160;DHT22;11748;50.844;4.396;2023-07-31T15:47:52;20.00;99.90
23160;DHT22;11748;50.844;4.396;2023-07-31T15:50:18;20.00;99.90
23160;DHT22;11748;50.844;4.396;2023-07-31T15:52:43;20.10;99.90
23160;DHT22;11748;50.844;4.396;2023-07-31T15:55:12;20.20;99.90
23160;DHT22;11748;50.844;4.396;2023-07-31T15:57:38;20.00;99.90
23160;DHT22;11748;50.844;4.396;2023-07-31T16:00:07;20.10;99.90
23160;DHT22;11748;50.844;4.396;2023-07-31T16:02:35;20.10;99.90
23160;DHT22;11748;50.844;4.396;2023-07-31T16:05:04;20.00;99.90
23160;DHT22;11748;50.844;4.396;2023-07-31T16:07:36;20.00;99.90
23160;DHT22;11748;50.844;4.396;2023-07-31T16:10:05;19.90;99.90
23160;DHT22;11748;50.844;4.396;2023-07-31T16:12:32;19.80;99.90
23160;DHT22;11748;50.844;4.396;2023-07-31T16:14:58;19.90;99.90
23160;DHT22;11748;50.844;4.396;2023-07-31T16:17:25;19.60;99.90
23160;DHT22;11748;50.844;4.396;2023-07-31T16:19:51;19.70;99.90
23160;DHT22;11748;50.844;4.396;2023-07-31T16:22:18;19.70;99.90
23160;DHT22;11748;50.844;4.396;2023-07-31T16:24:44;19.70;99.90
23160;DHT22;11748;50.844;4.396;2023-07-31T16:27:10;19.60;99.90
23160;DHT22;11748;50.844;4.396;2023-07-31T16:29:37;19.60;99.90